sensor_id;sensor_type;location;lat;lon;timestamp;temperature;humidity
52889;DHT22;41413;52.770;6.892;2023-07-09T00:01:56;24.20;89.30
52889;DHT22;41413;52.770;6.892;2023-07-09T00:04:24;24.20;89.50
52889;DHT22;41413;52.770;6.892;2023-07-09T00:06:51;24.20;89.50
52889;DHT22;41413;52.770;6.892;2023-07-09T00:09:20;24.10;89.90
52889;DHT22;41413;52.770;6.892;2023-07-09T00:11:48;24.10;89.90
52889;DHT22;41413;52.770;6.892;2023-07-09T00:14:17;24.10;89.90
52889;DHT22;41413;52.770;6.892;2023-07-09T00:16:45;24.00;90.00
52889;DHT22;41413;52.770;6.892;2023-07-09T00:19:18;23.90;90.20
52889;DHT22;41413;52.770;6.892;2023-07-09T00:21:48;24.00;90.10
52889;DHT22;41413;52.770;6.892;2023-07-09T00:24:15;23.90;90.30
52889;DHT22;41413;52.770;6.892;2023-07-09T00:26:42;23.90;90.40
52889;DHT22;41413;52.770;6.892;2023-07-09T00:29:10;23.80;90.50
52889;DHT22;41413;52.770;6.892;2023-07-09T00:31:38;23.80;90.50
52889;DHT22;41413;52.770;6.892;2023-07-09T00:34:09;23.70;90.60
52889;DHT22;41413;52.770;6.892;2023-07-09T00:36:38;23.60;90.80
52889;DHT22;41413;52.770;6.892;2023-07-09T00:39:08;23.60;90.90
52889;DHT22;41413;52.770;6.892;2023-07-09T00:41:38;23.60;91.00
52889;DHT22;41413;52.770;6.892;2023-07-09T00:49:31;23.50;91.60
52889;DHT22;41413;52.770;6.892;2023-07-09T00:52:03;23.50;91.60
52889;DHT22;41413;52.770;6.892;2023-07-09T00:54:38;23.40;92.00
52889;DHT22;41413;52.770;6.892;2023-07-09T00:57:13;23.40;92.10
52889;DHT22;41413;52.770;6.892;2023-07-09T00:59:47;23.40;92.20
52889;DHT22;41413;52.770;6.892;2023-07-09T01:02:15;23.30;92.20
52889;DHT22;41413;52.770;6.892;2023-07-09T01:04:42;23.20;92.10
52889;DHT22;41413;52.770;6.892;2023-07-09T01:07:09;23.30;92.40
52889;DHT22;41413;52.770;6.892;2023-07-09T01:09:36;23.20;92.40
52889;DHT22;41413;52.770;6.892;2023-07-09T01:12:09;23.10;92.30
52889;DHT22;41413;52.770;6.892;2023-07-09T01:14:36;23.20;92.20
52889;DHT22;41413;52.770;6.892;2023-07-09T01:17:06;23.10;92.60
52889;DHT22;41413;52.770;6.892;2023-07-09T01:19:39;23.10;92.60
52889;DHT22;41413;52.770;6.892;2023-07-09T01:22:12;23.10;92.60
52889;DHT22;41413;52.770;6.892;2023-07-09T01:27:31;23.00;92.60
52889;DHT22;41413;52.770;6.892;2023-07-09T01:30:02;23.00;92.90
52889;DHT22;41413;52.770;6.892;2023-07-09T01:32:30;22.90;93.10
52889;DHT22;41413;52.770;6.892;2023-07-09T01:34:58;22.90;93.10
52889;DHT22;41413;52.770;6.892;2023-07-09T01:37:27;22.90;93.10
52889;DHT22;41413;52.770;6.892;2023-07-09T01:39:54;22.90;93.10
52889;DHT22;41413;52.770;6.892;2023-07-09T01:42:23;22.80;93.20
52889;DHT22;41413;52.770;6.892;2023-07-09T01:44:52;22.80;93.20
52889;DHT22;41413;52.770;6.892;2023-07-09T01:47:21;22.80;93.50
52889;DHT22;41413;52.770;6.892;2023-07-09T01:49:51;22.80;93.50
52889;DHT22;41413;52.770;6.892;2023-07-09T01:52:27;22.80;93.90
52889;DHT22;41413;52.770;6.892;2023-07-09T01:54:55;22.70;93.70
52889;DHT22;41413;52.770;6.892;2023-07-09T01:57:24;22.70;93.60
52889;DHT22;41413;52.770;6.892;2023-07-09T01:59:54;22.60;93.70
52889;DHT22;41413;52.770;6.892;2023-07-09T02:02:24;22.60;93.90
52889;DHT22;41413;52.770;6.892;2023-07-09T02:04:54;22.60;94.00
52889;DHT22;41413;52.770;6.892;2023-07-09T02:07:23;22.60;94.20
52889;DHT22;41413;52.770;6.892;2023-07-09T02:09:50;22.50;94.30
52889;DHT22;41413;52.770;6.892;2023-07-09T02:12:17;22.40;94.30
52889;DHT22;41413;52.770;6.892;2023-07-09T02:14:45;22.40;94.50
52889;DHT22;41413;52.770;6.892;2023-07-09T02:17:13;22.40;94.50
52889;DHT22;41413;52.770;6.892;2023-07-09T02:19:41;22.40;94.70
52889;DHT22;41413;52.770;6.892;2023-07-09T02:22:08;22.30;95.00
52889;DHT22;41413;52.770;6.892;2023-07-09T02:24:35;22.20;95.10
52889;DHT22;41413;52.770;6.892;2023-07-09T02:27:06;22.30;95.00
52889;DHT22;41413;52.770;6.892;2023-07-09T02:29:33;22.20;94.90
52889;DHT22;41413;52.770;6.892;2023-07-09T02:32:00;22.20;95.00
52889;DHT22;41413;52.770;6.892;2023-07-09T02:34:29;22.20;95.00
52889;DHT22;41413;52.770;6.892;2023-07-09T02:36:57;22.20;95.10
52889;DHT22;41413;52.770;6.892;2023-07-09T02:39:24;22.20;95.40
52889;DHT22;41413;52.770;6.892;2023-07-09T02:41:51;22.10;95.40
52889;DHT22;41413;52.770;6.892;2023-07-09T02:44:18;22.00;95.60
52889;DHT22;41413;52.770;6.892;2023-07-09T02:46:46;22.00;95.90
52889;DHT22;41413;52.770;6.892;2023-07-09T02:49:14;22.00;95.90
52889;DHT22;41413;52.770;6.892;2023-07-09T02:51:41;22.00;95.80
52889;DHT22;41413;52.770;6.892;2023-07-09T02:54:08;22.00;95.90
52889;DHT22;41413;52.770;6.892;2023-07-09T02:56:35;22.00;96.00
52889;DHT22;41413;52.770;6.892;2023-07-09T02:59:02;21.90;96.20
52889;DHT22;41413;52.770;6.892;2023-07-09T03:01:29;21.90;96.50
52889;DHT22;41413;52.770;6.892;2023-07-09T03:03:57;21.90;96.10
52889;DHT22;41413;52.770;6.892;2023-07-09T03:06:27;21.90;96.00
52889;DHT22;41413;52.770;6.892;2023-07-09T03:08:54;21.90;96.10
52889;DHT22;41413;52.770;6.892;2023-07-09T03:11:21;21.80;96.10
52889;DHT22;41413;52.770;6.892;2023-07-09T03:13:48;21.90;96.20
52889;DHT22;41413;52.770;6.892;2023-07-09T03:16:15;21.80;96.10
52889;DHT22;41413;52.770;6.892;2023-07-09T03:18:42;21.80;96.10
52889;DHT22;41413;52.770;6.892;2023-07-09T03:21:09;21.80;96.20
52889;DHT22;41413;52.770;6.892;2023-07-09T03:23:36;21.70;96.30
52889;DHT22;41413;52.770;6.892;2023-07-09T03:26:03;21.70;96.40
52889;DHT22;41413;52.770;6.892;2023-07-09T03:28:32;21.70;96.40
52889;DHT22;41413;52.770;6.892;2023-07-09T03:30:59;21.70;96.50
52889;DHT22;41413;52.770;6.892;2023-07-09T03:33:26;21.60;96.50
52889;DHT22;41413;52.770;6.892;2023-07-09T03:35:53;21.70;96.50
52889;DHT22;41413;52.770;6.892;2023-07-09T03:38:20;21.60;96.50
52889;DHT22;41413;52.770;6.892;2023-07-09T03:40:52;21.60;96.60
52889;DHT22;41413;52.770;6.892;2023-07-09T03:43:19;21.60;96.80
52889;DHT22;41413;52.770;6.892;2023-07-09T03:45:47;21.60;96.90
52889;DHT22;41413;52.770;6.892;2023-07-09T03:48:15;21.60;97.10
52889;DHT22;41413;52.770;6.892;2023-07-09T03:50:44;21.60;97.20
52889;DHT22;41413;52.770;6.892;2023-07-09T03:53:11;21.60;96.90
52889;DHT22;41413;52.770;6.892;2023-07-09T03:55:38;21.50;96.90
52889;DHT22;41413;52.770;6.892;2023-07-09T03:58:05;21.60;97.00
52889;DHT22;41413;52.770;6.892;2023-07-09T04:00:33;21.50;97.00
52889;DHT22;41413;52.770;6.892;2023-07-09T04:03:00;21.50;97.10
52889;DHT22;41413;52.770;6.892;2023-07-09T04:05:27;21.50;97.10
52889;DHT22;41413;52.770;6.892;2023-07-09T04:07:54;21.50;97.00
52889;DHT22;41413;52.770;6.892;2023-07-09T04:10:21;21.50;97.10
52889;DHT22;41413;52.770;6.892;2023-07-09T04:12:48;21.50;97.20
52889;DHT22;41413;52.770;6.892;2023-07-09T04:15:16;21.50;97.10
52889;DHT22;41413;52.770;6.892;2023-07-09T04:17:43;21.50;97.10
52889;DHT22;41413;52.770;6.892;2023-07-09T04:20:10;21.50;97.20
52889;DHT22;41413;52.770;6.892;2023-07-09T04:22:37;21.50;97.00
52889;DHT22;41413;52.770;6.892;2023-07-09T04:25:06;21.50;97.00
52889;DHT22;41413;52.770;6.892;2023-07-09T04:27:33;21.60;97.10
52889;DHT22;41413;52.770;6.892;2023-07-09T04:30:00;21.60;97.20
52889;DHT22;41413;52.770;6.892;2023-07-09T04:32:27;21.60;97.20
52889;DHT22;41413;52.770;6.892;2023-07-09T04:34:54;21.60;97.00
52889;DHT22;41413;52.770;6.892;2023-07-09T04:37:21;21.60;96.90
52889;DHT22;41413;52.770;6.892;2023-07-09T04:39:48;21.70;96.90
52889;DHT22;41413;52.770;6.892;2023-07-09T04:42:16;21.70;96.90
52889;DHT22;41413;52.770;6.892;2023-07-09T04:44:45;21.70;96.90
52889;DHT22;41413;52.770;6.892;2023-07-09T04:47:12;21.80;97.00
52889;DHT22;41413;52.770;6.892;2023-07-09T04:49:39;21.70;97.30
52889;DHT22;41413;52.770;6.892;2023-07-09T04:52:06;21.60;96.90
52889;DHT22;41413;52.770;6.892;2023-07-09T04:54:33;21.70;97.00
52889;DHT22;41413;52.770;6.892;2023-07-09T04:57:00;21.70;97.00
52889;DHT22;41413;52.770;6.892;2023-07-09T04:59:26;21.70;96.80
52889;DHT22;41413;52.770;6.892;2023-07-09T05:01:53;21.70;96.90
52889;DHT22;41413;52.770;6.892;2023-07-09T05:04:20;21.70;97.10
52889;DHT22;41413;52.770;6.892;2023-07-09T05:06:48;21.80;97.00
52889;DHT22;41413;52.770;6.892;2023-07-09T05:09:14;21.80;97.00
52889;DHT22;41413;52.770;6.892;2023-07-09T05:11:41;21.80;97.10
52889;DHT22;41413;52.770;6.892;2023-07-09T05:14:08;21.90;97.00
52889;DHT22;41413;52.770;6.892;2023-07-09T05:16:35;22.00;97.00
52889;DHT22;41413;52.770;6.892;2023-07-09T05:19:02;22.00;97.20
52889;DHT22;41413;52.770;6.892;2023-07-09T05:21:29;22.10;97.30
52889;DHT22;41413;52.770;6.892;2023-07-09T05:23:56;22.20;97.20
52889;DHT22;41413;52.770;6.892;2023-07-09T05:26:23;22.30;97.10
52889;DHT22;41413;52.770;6.892;2023-07-09T05:28:50;22.40;97.10
52889;DHT22;41413;52.770;6.892;2023-07-09T05:31:17;22.50;97.20
52889;DHT22;41413;52.770;6.892;2023-07-09T05:33:45;22.50;97.20
52889;DHT22;41413;52.770;6.892;2023-07-09T05:36:12;22.60;97.00
52889;DHT22;41413;52.770;6.892;2023-07-09T05:38:43;22.70;97.20
52889;DHT22;41413;52.770;6.892;2023-07-09T05:41:10;22.80;97.20
52889;DHT22;41413;52.770;6.892;2023-07-09T05:43:37;22.90;97.20
52889;DHT22;41413;52.770;6.892;2023-07-09T05:46:05;23.00;97.00
52889;DHT22;41413;52.770;6.892;2023-07-09T05:48:32;23.00;96.90
52889;DHT22;41413;52.770;6.892;2023-07-09T05:51:00;23.10;97.00
52889;DHT22;41413;52.770;6.892;2023-07-09T05:53:27;23.20;96.90
52889;DHT22;41413;52.770;6.892;2023-07-09T05:55:55;23.20;97.00
52889;DHT22;41413;52.770;6.892;2023-07-09T05:58:22;23.20;96.80
52889;DHT22;41413;52.770;6.892;2023-07-09T06:00:50;23.20;96.80
52889;DHT22;41413;52.770;6.892;2023-07-09T06:03:22;23.30;96.90
52889;DHT22;41413;52.770;6.892;2023-07-09T06:05:49;23.30;97.20
52889;DHT22;41413;52.770;6.892;2023-07-09T06:08:16;23.30;97.20
52889;DHT22;41413;52.770;6.892;2023-07-09T06:10:57;23.40;97.30
52889;DHT22;41413;52.770;6.892;2023-07-09T06:13:24;23.30;97.10
52889;DHT22;41413;52.770;6.892;2023-07-09T06:15:54;23.40;97.00
52889;DHT22;41413;52.770;6.892;2023-07-09T06:18:22;23.40;97.30
52889;DHT22;41413;52.770;6.892;2023-07-09T06:20:50;23.30;97.30
52889;DHT22;41413;52.770;6.892;2023-07-09T06:23:19;23.40;97.40
52889;DHT22;41413;52.770;6.892;2023-07-09T06:25:46;23.40;97.40
52889;DHT22;41413;52.770;6.892;2023-07-09T06:28:19;23.40;98.00
52889;DHT22;41413;52.770;6.892;2023-07-09T06:30:46;23.40;98.20
52889;DHT22;41413;52.770;6.892;2023-07-09T06:33:14;23.40;98.10
52889;DHT22;41413;52.770;6.892;2023-07-09T06:35:52;23.50;98.40
52889;DHT22;41413;52.770;6.892;2023-07-09T06:38:19;23.50;98.50
52889;DHT22;41413;52.770;6.892;2023-07-09T06:40:47;23.50;98.50
52889;DHT22;41413;52.770;6.892;2023-07-09T06:43:13;23.60;98.40
52889;DHT22;41413;52.770;6.892;2023-07-09T06:45:51;23.70;98.50
52889;DHT22;41413;52.770;6.892;2023-07-09T06:48:18;23.80;98.50
52889;DHT22;41413;52.770;6.892;2023-07-09T06:50:47;23.90;98.30
52889;DHT22;41413;52.770;6.892;2023-07-09T06:53:14;23.90;98.40
52889;DHT22;41413;52.770;6.892;2023-07-09T06:55:41;24.00;98.40
52889;DHT22;41413;52.770;6.892;2023-07-09T06:58:08;24.10;98.60
52889;DHT22;41413;52.770;6.892;2023-07-09T07:00:36;24.20;98.60
52889;DHT22;41413;52.770;6.892;2023-07-09T07:03:04;24.30;98.60
52889;DHT22;41413;52.770;6.892;2023-07-09T07:05:31;24.30;98.20
52889;DHT22;41413;52.770;6.892;2023-07-09T07:07:59;24.50;98.10
52889;DHT22;41413;52.770;6.892;2023-07-09T07:10:26;24.50;98.10
52889;DHT22;41413;52.770;6.892;2023-07-09T07:12:53;24.60;98.10
52889;DHT22;41413;52.770;6.892;2023-07-09T07:15:21;24.60;98.00
52889;DHT22;41413;52.770;6.892;2023-07-09T07:17:48;24.70;98.40
52889;DHT22;41413;52.770;6.892;2023-07-09T07:20:16;24.70;98.30
52889;DHT22;41413;52.770;6.892;2023-07-09T07:22:43;24.80;97.80
52889;DHT22;41413;52.770;6.892;2023-07-09T07:25:10;24.90;98.10
52889;DHT22;41413;52.770;6.892;2023-07-09T07:27:37;25.00;98.30
52889;DHT22;41413;52.770;6.892;2023-07-09T07:30:05;25.10;98.30
52889;DHT22;41413;52.770;6.892;2023-07-09T07:32:38;25.10;98.50
52889;DHT22;41413;52.770;6.892;2023-07-09T07:35:05;25.20;98.50
52889;DHT22;41413;52.770;6.892;2023-07-09T07:37:32;25.20;98.40
52889;DHT22;41413;52.770;6.892;2023-07-09T07:40:00;25.30;98.30
52889;DHT22;41413;52.770;6.892;2023-07-09T07:42:27;25.40;98.40
52889;DHT22;41413;52.770;6.892;2023-07-09T07:44:53;25.40;98.40
52889;DHT22;41413;52.770;6.892;2023-07-09T07:47:20;25.40;98.20
52889;DHT22;41413;52.770;6.892;2023-07-09T07:49:47;25.60;98.20
52889;DHT22;41413;52.770;6.892;2023-07-09T07:52:14;25.70;98.10
52889;DHT22;41413;52.770;6.892;2023-07-09T07:54:41;25.70;98.10
52889;DHT22;41413;52.770;6.892;2023-07-09T07:57:08;25.80;98.20
52889;DHT22;41413;52.770;6.892;2023-07-09T07:59:36;25.90;98.10
52889;DHT22;41413;52.770;6.892;2023-07-09T08:02:05;25.90;98.10
52889;DHT22;41413;52.770;6.892;2023-07-09T08:04:33;26.00;98.10
52889;DHT22;41413;52.770;6.892;2023-07-09T08:06:59;26.20;98.20
52889;DHT22;41413;52.770;6.892;2023-07-09T08:09:26;26.40;97.90
52889;DHT22;41413;52.770;6.892;2023-07-09T08:11:53;26.60;97.80
52889;DHT22;41413;52.770;6.892;2023-07-09T08:14:20;26.70;97.60
52889;DHT22;41413;52.770;6.892;2023-07-09T08:16:47;26.80;97.10
52889;DHT22;41413;52.770;6.892;2023-07-09T08:19:17;26.80;97.00
52889;DHT22;41413;52.770;6.892;2023-07-09T08:21:44;26.80;96.70
52889;DHT22;41413;52.770;6.892;2023-07-09T08:24:13;27.00;96.70
52889;DHT22;41413;52.770;6.892;2023-07-09T08:26:41;27.00;96.10
52889;DHT22;41413;52.770;6.892;2023-07-09T08:29:07;27.10;96.10
52889;DHT22;41413;52.770;6.892;2023-07-09T08:31:34;27.20;96.20
52889;DHT22;41413;52.770;6.892;2023-07-09T08:34:01;27.30;96.60
52889;DHT22;41413;52.770;6.892;2023-07-09T08:36:28;27.40;95.70
52889;DHT22;41413;52.770;6.892;2023-07-09T08:38:56;27.70;95.90
52889;DHT22;41413;52.770;6.892;2023-07-09T08:41:42;28.40;96.10
52889;DHT22;41413;52.770;6.892;2023-07-09T08:49:50;30.20;90.80
52889;DHT22;41413;52.770;6.892;2023-07-09T08:52:37;30.20;90.40
52889;DHT22;41413;52.770;6.892;2023-07-09T08:55:17;30.50;90.50
52889;DHT22;41413;52.770;6.892;2023-07-09T08:57:47;31.10;89.80
52889;DHT22;41413;52.770;6.892;2023-07-09T09:00:37;31.50;90.50
52889;DHT22;41413;52.770;6.892;2023-07-09T09:03:15;32.30;89.40
52889;DHT22;41413;52.770;6.892;2023-07-09T09:05:43;32.60;88.40
52889;DHT22;41413;52.770;6.892;2023-07-09T09:08:40;32.60;87.40
52889;DHT22;41413;52.770;6.892;2023-07-09T09:14:02;32.90;88.40
52889;DHT22;41413;52.770;6.892;2023-07-09T09:16:35;33.30;89.10
52889;DHT22;41413;52.770;6.892;2023-07-09T09:19:03;33.60;87.60
52889;DHT22;41413;52.770;6.892;2023-07-09T09:21:37;33.80;88.00
52889;DHT22;41413;52.770;6.892;2023-07-09T09:27:08;34.00;85.90
52889;DHT22;41413;52.770;6.892;2023-07-09T09:29:34;34.10;84.90
52889;DHT22;41413;52.770;6.892;2023-07-09T09:34:42;34.20;82.80
52889;DHT22;41413;52.770;6.892;2023-07-09T09:37:12;33.80;83.40
52889;DHT22;41413;52.770;6.892;2023-07-09T09:39:39;34.20;83.40
52889;DHT22;41413;52.770;6.892;2023-07-09T09:42:10;34.30;82.50
52889;DHT22;41413;52.770;6.892;2023-07-09T09:44:43;34.40;81.90
52889;DHT22;41413;52.770;6.892;2023-07-09T09:47:11;34.10;82.30
52889;DHT22;41413;52.770;6.892;2023-07-09T09:49:43;34.10;82.10
52889;DHT22;41413;52.770;6.892;2023-07-09T09:52:14;34.40;82.00
52889;DHT22;41413;52.770;6.892;2023-07-09T09:54:53;34.40;82.00
52889;DHT22;41413;52.770;6.892;2023-07-09T09:57:24;34.60;82.40
52889;DHT22;41413;52.770;6.892;2023-07-09T09:59:54;34.40;81.50
52889;DHT22;41413;52.770;6.892;2023-07-09T10:02:24;34.50;81.10
52889;DHT22;41413;52.770;6.892;2023-07-09T10:04:51;34.70;81.10
52889;DHT22;41413;52.770;6.892;2023-07-09T10:07:30;35.00;81.10
52889;DHT22;41413;52.770;6.892;2023-07-09T10:09:59;35.00;79.30
52889;DHT22;41413;52.770;6.892;2023-07-09T10:12:52;35.00;80.00
52889;DHT22;41413;52.770;6.892;2023-07-09T10:21:08;35.10;79.10
52889;DHT22;41413;52.770;6.892;2023-07-09T10:26:24;35.30;80.10
52889;DHT22;41413;52.770;6.892;2023-07-09T10:29:33;35.00;78.40
52889;DHT22;41413;52.770;6.892;2023-07-09T10:32:20;35.20;78.40
52889;DHT22;41413;52.770;6.892;2023-07-09T10:35:01;34.90;78.70
52889;DHT22;41413;52.770;6.892;2023-07-09T10:38:15;34.40;78.60
52889;DHT22;41413;52.770;6.892;2023-07-09T10:40:42;34.40;80.10
52889;DHT22;41413;52.770;6.892;2023-07-09T10:43:15;34.40;80.50
52889;DHT22;41413;52.770;6.892;2023-07-09T10:45:47;34.60;81.80
52889;DHT22;41413;52.770;6.892;2023-07-09T10:48:38;34.60;80.80
52889;DHT22;41413;52.770;6.892;2023-07-09T10:51:15;34.60;79.70
52889;DHT22;41413;52.770;6.892;2023-07-09T10:53:45;34.90;80.50
52889;DHT22;41413;52.770;6.892;2023-07-09T10:56:19;34.90;78.90
52889;DHT22;41413;52.770;6.892;2023-07-09T11:01:58;34.80;77.90
52889;DHT22;41413;52.770;6.892;2023-07-09T11:04:35;35.30;78.80
52889;DHT22;41413;52.770;6.892;2023-07-09T11:07:07;35.50;78.80
52889;DHT22;41413;52.770;6.892;2023-07-09T11:09:41;35.50;78.40
52889;DHT22;41413;52.770;6.892;2023-07-09T11:12:19;35.40;77.60
52889;DHT22;41413;52.770;6.892;2023-07-09T11:14:56;35.10;77.00
52889;DHT22;41413;52.770;6.892;2023-07-09T11:17:26;35.00;77.00
52889;DHT22;41413;52.770;6.892;2023-07-09T11:19:57;35.10;77.40
52889;DHT22;41413;52.770;6.892;2023-07-09T11:22:37;34.90;77.60
52889;DHT22;41413;52.770;6.892;2023-07-09T11:25:13;35.00;77.90
52889;DHT22;41413;52.770;6.892;2023-07-09T11:27:52;35.10;78.40
52889;DHT22;41413;52.770;6.892;2023-07-09T11:30:27;35.30;78.00
52889;DHT22;41413;52.770;6.892;2023-07-09T11:33:01;35.60;77.50
52889;DHT22;41413;52.770;6.892;2023-07-09T11:35:50;35.40;76.00
52889;DHT22;41413;52.770;6.892;2023-07-09T11:38:19;35.40;77.30
52889;DHT22;41413;52.770;6.892;2023-07-09T11:40:53;35.20;77.40
52889;DHT22;41413;52.770;6.892;2023-07-09T11:43:35;35.30;76.70
52889;DHT22;41413;52.770;6.892;2023-07-09T11:46:14;35.40;77.10
52889;DHT22;41413;52.770;6.892;2023-07-09T11:48:44;35.40;76.30
52889;DHT22;41413;52.770;6.892;2023-07-09T11:51:17;35.50;77.00
52889;DHT22;41413;52.770;6.892;2023-07-09T11:53:50;35.70;78.50
52889;DHT22;41413;52.770;6.892;2023-07-09T11:56:22;35.60;76.20
52889;DHT22;41413;52.770;6.892;2023-07-09T11:58:56;35.10;75.90
52889;DHT22;41413;52.770;6.892;2023-07-09T12:01:47;35.40;76.50
52889;DHT22;41413;52.770;6.892;2023-07-09T12:04:16;35.20;74.80
52889;DHT22;41413;52.770;6.892;2023-07-09T12:06:45;35.40;76.10
52889;DHT22;41413;52.770;6.892;2023-07-09T12:09:20;35.40;76.10
52889;DHT22;41413;52.770;6.892;2023-07-09T12:11:49;35.40;76.50
52889;DHT22;41413;52.770;6.892;2023-07-09T12:14:18;35.50;76.50
52889;DHT22;41413;52.770;6.892;2023-07-09T12:16:50;35.80;76.70
52889;DHT22;41413;52.770;6.892;2023-07-09T12:19:20;35.90;76.70
52889;DHT22;41413;52.770;6.892;2023-07-09T12:21:49;35.60;75.80
52889;DHT22;41413;52.770;6.892;2023-07-09T12:24:24;35.40;74.90
52889;DHT22;41413;52.770;6.892;2023-07-09T12:26:56;35.70;75.70
52889;DHT22;41413;52.770;6.892;2023-07-09T12:29:29;35.70;74.80
52889;DHT22;41413;52.770;6.892;2023-07-09T12:31:57;35.60;74.90
52889;DHT22;41413;52.770;6.892;2023-07-09T12:34:24;35.80;75.00
52889;DHT22;41413;52.770;6.892;2023-07-09T12:36:52;35.40;74.40
52889;DHT22;41413;52.770;6.892;2023-07-09T12:39:24;35.50;74.40
52889;DHT22;41413;52.770;6.892;2023-07-09T12:41:55;35.40;72.80
52889;DHT22;41413;52.770;6.892;2023-07-09T12:44:24;35.40;74.50
52889;DHT22;41413;52.770;6.892;2023-07-09T12:46:53;35.00;74.30
52889;DHT22;41413;52.770;6.892;2023-07-09T12:49:29;35.10;74.80
52889;DHT22;41413;52.770;6.892;2023-07-09T12:51:58;35.20;75.70
52889;DHT22;41413;52.770;6.892;2023-07-09T12:54:28;35.50;75.50
52889;DHT22;41413;52.770;6.892;2023-07-09T12:56:58;35.50;74.70
52889;DHT22;41413;52.770;6.892;2023-07-09T12:59:37;35.50;74.50
52889;DHT22;41413;52.770;6.892;2023-07-09T13:02:16;35.40;72.30
52889;DHT22;41413;52.770;6.892;2023-07-09T13:04:44;35.20;71.90
52889;DHT22;41413;52.770;6.892;2023-07-09T13:09:51;34.60;72.30
52889;DHT22;41413;52.770;6.892;2023-07-09T13:12:18;34.70;73.60
52889;DHT22;41413;52.770;6.892;2023-07-09T13:14:55;34.70;73.20
52889;DHT22;41413;52.770;6.892;2023-07-09T13:17:32;34.50;72.60
52889;DHT22;41413;52.770;6.892;2023-07-09T13:19:59;34.50;73.30
52889;DHT22;41413;52.770;6.892;2023-07-09T13:22:28;34.20;73.30
52889;DHT22;41413;52.770;6.892;2023-07-09T13:24:55;34.10;73.60
52889;DHT22;41413;52.770;6.892;2023-07-09T13:27:22;33.80;73.30
52889;DHT22;41413;52.770;6.892;2023-07-09T13:29:50;33.60;74.20
52889;DHT22;41413;52.770;6.892;2023-07-09T13:32:17;33.60;73.70
52889;DHT22;41413;52.770;6.892;2023-07-09T13:34:44;33.50;74.20
52889;DHT22;41413;52.770;6.892;2023-07-09T13:37:13;33.40;74.50
52889;DHT22;41413;52.770;6.892;2023-07-09T13:39:41;33.40;75.00
52889;DHT22;41413;52.770;6.892;2023-07-09T13:42:14;33.20;74.40
52889;DHT22;41413;52.770;6.892;2023-07-09T13:44:45;33.30;74.20
52889;DHT22;41413;52.770;6.892;2023-07-09T13:47:14;33.10;74.50
52889;DHT22;41413;52.770;6.892;2023-07-09T13:49:44;33.10;74.80
52889;DHT22;41413;52.770;6.892;2023-07-09T13:52:18;33.00;75.30
52889;DHT22;41413;52.770;6.892;2023-07-09T13:54:45;33.00;75.30
52889;DHT22;41413;52.770;6.892;2023-07-09T13:57:17;32.90;75.80
52889;DHT22;41413;52.770;6.892;2023-07-09T13:59:45;33.00;76.50
52889;DHT22;41413;52.770;6.892;2023-07-09T14:02:28;32.90;76.30
52889;DHT22;41413;52.770;6.892;2023-07-09T14:05:01;33.00;77.00
52889;DHT22;41413;52.770;6.892;2023-07-09T14:07:31;33.10;76.80
52889;DHT22;41413;52.770;6.892;2023-07-09T14:10:00;33.30;77.10
52889;DHT22;41413;52.770;6.892;2023-07-09T14:12:28;33.20;76.60
52889;DHT22;41413;52.770;6.892;2023-07-09T14:14:57;33.10;76.10
52889;DHT22;41413;52.770;6.892;2023-07-09T14:17:25;33.10;76.30
52889;DHT22;41413;52.770;6.892;2023-07-09T14:19:53;33.00;77.00
52889;DHT22;41413;52.770;6.892;2023-07-09T14:22:25;33.10;78.40
52889;DHT22;41413;52.770;6.892;2023-07-09T14:24:54;33.10;78.30
52889;DHT22;41413;52.770;6.892;2023-07-09T14:27:21;32.90;77.80
52889;DHT22;41413;52.770;6.892;2023-07-09T14:29:47;32.80;76.80
52889;DHT22;41413;52.770;6.892;2023-07-09T14:32:33;32.70;76.50
52889;DHT22;41413;52.770;6.892;2023-07-09T14:35:03;32.70;76.90
52889;DHT22;41413;52.770;6.892;2023-07-09T14:37:30;32.50;76.70
52889;DHT22;41413;52.770;6.892;2023-07-09T14:39:57;32.50;77.40
52889;DHT22;41413;52.770;6.892;2023-07-09T14:42:24;32.30;77.30
52889;DHT22;41413;52.770;6.892;2023-07-09T14:44:51;32.30;77.70
52889;DHT22;41413;52.770;6.892;2023-07-09T14:47:20;32.20;78.40
52889;DHT22;41413;52.770;6.892;2023-07-09T14:49:48;32.10;78.20
52889;DHT22;41413;52.770;6.892;2023-07-09T14:52:18;32.10;78.90
52889;DHT22;41413;52.770;6.892;2023-07-09T14:54:46;32.10;79.20
52889;DHT22;41413;52.770;6.892;2023-07-09T14:57:24;32.00;79.80
52889;DHT22;41413;52.770;6.892;2023-07-09T14:59:53;31.90;81.80
52889;DHT22;41413;52.770;6.892;2023-07-09T15:04:46;31.80;82.10
52889;DHT22;41413;52.770;6.892;2023-07-09T15:07:14;31.70;83.00
52889;DHT22;41413;52.770;6.892;2023-07-09T15:09:41;31.60;83.10
52889;DHT22;41413;52.770;6.892;2023-07-09T15:12:22;31.60;82.90
52889;DHT22;41413;52.770;6.892;2023-07-09T15:14:50;31.60;85.10
52889;DHT22;41413;52.770;6.892;2023-07-09T15:17:17;31.50;84.20
52889;DHT22;41413;52.770;6.892;2023-07-09T15:19:44;31.50;84.60
52889;DHT22;41413;52.770;6.892;2023-07-09T15:22:30;31.50;83.80
52889;DHT22;41413;52.770;6.892;2023-07-09T15:24:57;31.50;84.00
52889;DHT22;41413;52.770;6.892;2023-07-09T15:27:25;31.50;84.70
52889;DHT22;41413;52.770;6.892;2023-07-09T15:29:52;31.50;84.50
52889;DHT22;41413;52.770;6.892;2023-07-09T15:32:19;31.50;85.00
52889;DHT22;41413;52.770;6.892;2023-07-09T15:34:45;31.50;86.40
52889;DHT22;41413;52.770;6.892;2023-07-09T15:37:15;31.50;86.90
52889;DHT22;41413;52.770;6.892;2023-07-09T15:39:42;31.50;86.00
52889;DHT22;41413;52.770;6.892;2023-07-09T15:42:11;31.20;87.10
52889;DHT22;41413;52.770;6.892;2023-07-09T15:44:38;30.90;87.90
52889;DHT22;41413;52.770;6.892;2023-07-09T15:47:05;30.70;88.50
52889;DHT22;41413;52.770;6.892;2023-07-09T15:49:35;30.40;88.90
52889;DHT22;41413;52.770;6.892;2023-07-09T15:52:01;30.10;89.60
52889;DHT22;41413;52.770;6.892;2023-07-09T15:54:28;29.90;90.30
52889;DHT22;41413;52.770;6.892;2023-07-09T15:56:55;29.50;90.60
52889;DHT22;41413;52.770;6.892;2023-07-09T15:59:26;29.40;90.90
52889;DHT22;41413;52.770;6.892;2023-07-09T16:01:54;29.10;91.10
52889;DHT22;41413;52.770;6.892;2023-07-09T16:04:21;28.90;90.50
52889;DHT22;41413;52.770;6.892;2023-07-09T16:06:48;28.60;90.10
52889;DHT22;41413;52.770;6.892;2023-07-09T16:09:15;28.50;90.20
52889;DHT22;41413;52.770;6.892;2023-07-09T16:11:48;28.40;90.00
52889;DHT22;41413;52.770;6.892;2023-07-09T16:14:32;28.00;90.00
52889;DHT22;41413;52.770;6.892;2023-07-09T16:17:00;27.90;89.90
52889;DHT22;41413;52.770;6.892;2023-07-09T16:19:30;27.70;90.00
52889;DHT22;41413;52.770;6.892;2023-07-09T16:22:05;27.50;90.00
52889;DHT22;41413;52.770;6.892;2023-07-09T16:24:34;27.30;90.40
52889;DHT22;41413;52.770;6.892;2023-07-09T16:27:05;27.10;90.40